createdAt,value
2023-02-17T00:01:10.892Z,63.06
2023-02-17T00:03:37.640Z,63.41
2023-02-17T00:06:09.789Z,63.32
2023-02-17T00:08:36.945Z,63.21
2023-02-17T00:11:03.770Z,63.11
2023-02-17T00:13:30.308Z,63.14
2023-02-17T00:15:57.105Z,63.11
2023-02-17T00:18:23.986Z,62.76
2023-02-17T00:20:50.931Z,63.23
2023-02-17T00:23:18.083Z,63.05
2023-02-17T00:25:44.822Z,63.09
2023-02-17T00:28:11.454Z,63.10
2023-02-17T00:30:39.364Z,63.11
2023-02-17T00:33:06.474Z,62.94
2023-02-17T00:35:33.313Z,62.78
2023-02-17T00:38:00.064Z,63.12
2023-02-17T00:40:26.707Z,63.41
2023-02-17T00:42:55.010Z,63.16
2023-02-17T00:45:21.906Z,62.81
2023-02-17T00:47:48.861Z,62.90
2023-02-17T00:50:21.428Z,63.06
2023-02-17T00:52:47.968Z,62.87
2023-02-17T00:55:14.499Z,62.51
2023-02-17T00:57:41.133Z,62.98
2023-02-17T01:00:09.307Z,63.02
2023-02-17T01:02:35.949Z,62.73
2023-02-17T01:05:04.145Z,62.78
2023-02-17T01:07:30.648Z,62.78
2023-02-17T01:09:57.351Z,62.83
2023-02-17T01:12:23.957Z,62.58
2023-02-17T01:14:51.687Z,62.76
2023-02-17T01:17:18.303Z,62.46
2023-02-17T01:19:44.805Z,62.44
2023-02-17T01:22:11.495Z,62.71
2023-02-17T01:24:39.154Z,62.84
2023-02-17T01:27:05.895Z,62.33
2023-02-17T01:29:32.633Z,62.55
2023-02-17T01:31:59.246Z,62.71
2023-02-17T01:34:27.236Z,62.56
2023-02-17T01:36:53.869Z,62.50
2023-02-17T01:39:20.511Z,62.45
2023-02-17T01:41:47.359Z,62.40
2023-02-17T01:44:20.433Z,62.22
2023-02-17T01:46:50.825Z,62.22
2023-02-17T01:49:31.115Z,62.31
2023-02-17T01:52:18.437Z,62.17
2023-02-17T01:55:07.761Z,62.23
2023-02-17T01:57:37.917Z,62.34
2023-02-17T02:00:08.347Z,62.18
2023-02-17T02:02:42.030Z,62.34
2023-02-17T02:05:10.124Z,62.27
2023-02-17T02:07:41.565Z,61.93
2023-02-17T02:10:09.842Z,61.96
2023-02-17T02:12:38.942Z,62.08
2023-02-17T02:15:09.778Z,62.15
2023-02-17T02:17:49.417Z,61.85
2023-02-17T02:20:37.666Z,61.79
2023-02-17T02:23:25.388Z,61.56
2023-02-17T02:26:15.885Z,61.82
2023-02-17T02:29:25.118Z,61.86
2023-02-17T02:32:01.990Z,61.55
2023-02-17T02:34:54.437Z,61.65
2023-02-17T02:37:36.741Z,61.59
2023-02-17T02:40:07.581Z,61.81
2023-02-17T02:42:36.160Z,61.98
2023-02-17T02:45:07.521Z,61.84
2023-02-17T02:47:45.204Z,61.68
2023-02-17T02:50:19.318Z,61.62
2023-02-17T02:52:56.909Z,61.62
2023-02-17T02:55:44.329Z,61.58
2023-02-17T02:58:36.264Z,61.59
2023-02-17T03:01:21.852Z,61.23
2023-02-17T03:04:31.852Z,61.28
2023-02-17T03:07:09.386Z,61.54
2023-02-17T03:09:36.637Z,61.22
2023-02-17T03:12:05.016Z,61.27
2023-02-17T03:14:37.583Z,61.46
2023-02-17T03:17:04.325Z,61.43
2023-02-17T03:19:31.084Z,61.43
2023-02-17T03:22:08.012Z,61.50
2023-02-17T03:24:35.293Z,61.06
2023-02-17T03:27:02.124Z,61.15
2023-02-17T03:29:28.773Z,61.28
2023-02-17T03:31:55.982Z,61.38
2023-02-17T03:34:22.556Z,60.94
2023-02-17T03:36:49.188Z,61.23
2023-02-17T03:39:16.652Z,61.03
2023-02-17T03:41:43.311Z,60.95
2023-02-17T03:44:10.032Z,60.96
2023-02-17T03:46:39.936Z,61.42
2023-02-17T03:49:06.471Z,60.71
2023-02-17T03:51:33.113Z,61.04
2023-02-17T03:53:59.640Z,60.94
2023-02-17T03:56:27.504Z,60.86
2023-02-17T03:58:57.214Z,60.94
2023-02-17T04:01:24.562Z,60.98
2023-02-17T04:03:51.674Z,60.83
2023-02-17T04:06:18.357Z,61.14
2023-02-17T04:08:44.924Z,60.98
2023-02-17T04:11:11.728Z,60.77
2023-02-17T04:13:38.461Z,60.90
2023-02-17T04:16:06.898Z,61.05
2023-02-17T04:18:34.408Z,60.83
2023-02-17T04:21:01.340Z,61.00
2023-02-17T04:23:28.285Z,60.87
2023-02-17T04:25:55.024Z,60.69
2023-02-17T04:28:22.584Z,60.72
2023-02-17T04:30:51.322Z,60.81
2023-02-17T04:33:18.418Z,60.81
2023-02-17T04:35:47.627Z,60.75
2023-02-17T04:38:14.255Z,60.99
2023-02-17T04:40:42.739Z,60.87
2023-02-17T04:43:09.685Z,60.67
2023-02-17T04:45:37.677Z,60.87
2023-02-17T04:48:04.378Z,60.87
2023-02-17T04:50:31.019Z,60.71
2023-02-17T04:52:57.774Z,61.12
2023-02-17T04:55:24.386Z,60.61
2023-02-17T04:57:51.025Z,60.77
2023-02-17T05:00:17.868Z,60.65
2023-02-17T05:02:44.503Z,60.92
2023-02-17T05:05:15.303Z,60.73
2023-02-17T05:07:43.111Z,60.77
2023-02-17T05:10:09.953Z,60.75
2023-02-17T05:12:36.678Z,60.85
2023-02-17T05:15:04.548Z,60.85
2023-02-17T05:17:31.182Z,61.14
2023-02-17T05:19:58.234Z,61.12
2023-02-17T05:22:25.169Z,61.05
2023-02-17T05:24:51.810Z,60.98
2023-02-17T05:27:19.057Z,60.78
2023-02-17T05:29:46.102Z,61.15
2023-02-17T05:32:13.251Z,60.78
2023-02-17T05:34:40.001Z,60.97
2023-02-17T05:37:06.532Z,61.32
2023-02-17T05:39:33.065Z,60.83
2023-02-17T05:41:59.598Z,60.96
2023-02-17T05:44:26.333Z,61.04
2023-02-17T05:46:53.025Z,61.41
2023-02-17T05:49:19.606Z,60.91
2023-02-17T05:51:46.246Z,61.23
2023-02-17T05:54:13.805Z,61.34
2023-02-17T05:56:40.551Z,61.06
2023-02-17T05:59:07.159Z,61.25
2023-02-17T06:01:34.426Z,61.16
2023-02-17T06:04:02.192Z,61.18
2023-02-17T06:06:28.979Z,61.18
2023-02-17T06:08:55.577Z,61.45
2023-02-17T06:11:22.205Z,61.34
2023-02-17T06:13:48.739Z,61.23
2023-02-17T06:16:15.305Z,61.51
2023-02-17T06:18:41.919Z,61.30
2023-02-17T06:21:08.459Z,61.23
2023-02-17T06:23:50.136Z,61.48
2023-02-17T06:26:18.551Z,61.62
2023-02-17T06:28:45.453Z,61.53
2023-02-17T06:31:12.207Z,61.80
2023-02-17T06:33:38.826Z,61.50
2023-02-17T06:36:06.113Z,61.76
2023-02-17T06:38:32.829Z,61.53
2023-02-17T06:40:59.757Z,61.60
2023-02-17T06:43:26.300Z,61.50
2023-02-17T06:45:52.878Z,61.94
2023-02-17T06:48:19.465Z,61.98
2023-02-17T06:50:46.101Z,61.66
2023-02-17T06:53:12.632Z,62.22
2023-02-17T06:55:39.647Z,61.73
2023-02-17T06:58:07.356Z,62.17
2023-02-17T07:00:34.079Z,62.14
2023-02-17T07:03:00.944Z,62.10
2023-02-17T07:05:27.663Z,62.20
2023-02-17T07:07:57.676Z,62.11
2023-02-17T07:10:24.317Z,61.83
2023-02-17T07:12:51.780Z,61.87
2023-02-17T07:15:18.619Z,61.76
2023-02-17T07:17:45.249Z,62.18
2023-02-17T07:20:12.719Z,62.00
2023-02-17T07:22:39.548Z,62.19
2023-02-17T07:25:06.692Z,62.00
2023-02-17T07:27:36.609Z,62.31
2023-02-17T07:30:04.516Z,62.22
2023-02-17T07:32:31.111Z,62.45
2023-02-17T07:34:57.755Z,62.41
2023-02-17T07:37:24.389Z,62.30
2023-02-17T07:39:52.472Z,61.90
2023-02-17T07:42:19.085Z,61.92
2023-02-17T07:44:49.818Z,61.89
2023-02-17T07:47:16.558Z,61.99
2023-02-17T07:49:43.210Z,62.21
2023-02-17T07:52:09.829Z,62.27
2023-02-17T07:54:36.581Z,61.90
2023-02-17T07:57:03.240Z,62.45
2023-02-17T07:59:29.953Z,62.09
2023-02-17T08:01:56.708Z,62.15
2023-02-17T08:04:23.365Z,62.12
2023-02-17T08:06:51.191Z,62.10
2023-02-17T08:09:36.458Z,62.02
2023-02-17T08:12:35.245Z,61.99
2023-02-17T08:15:02.204Z,61.95
2023-02-17T08:17:29.346Z,62.14
2023-02-17T08:19:56.180Z,62.20
2023-02-17T08:22:22.814Z,62.42
2023-02-17T08:24:49.475Z,61.86
2023-02-17T08:27:16.848Z,61.93
2023-02-17T08:29:44.157Z,61.81
2023-02-17T08:32:11.189Z,61.83
2023-02-17T08:34:37.941Z,61.88
2023-02-17T08:37:06.548Z,62.12
2023-02-17T08:39:34.069Z,61.81
2023-02-17T08:42:01.282Z,62.12
2023-02-17T08:44:27.871Z,62.00
2023-02-17T08:46:54.924Z,61.88
2023-02-17T08:49:24.526Z,62.01
2023-02-17T08:51:52.298Z,62.18
2023-02-17T08:54:19.030Z,62.06
2023-02-17T08:56:45.769Z,62.04
2023-02-17T08:59:12.925Z,62.00
2023-02-17T09:01:40.225Z,61.92
2023-02-17T09:04:08.552Z,61.81
2023-02-17T09:06:42.470Z,61.68
2023-02-17T09:09:12.014Z,61.73
2023-02-17T09:11:38.818Z,61.54
2023-02-17T09:14:06.995Z,61.92
2023-02-17T09:16:33.831Z,61.95
2023-02-17T09:19:00.444Z,61.61
2023-02-17T09:21:27.078Z,61.88
2023-02-17T09:23:54.029Z,61.56
2023-02-17T09:26:21.128Z,61.57
2023-02-17T09:28:48.015Z,61.58
2023-02-17T09:31:20.263Z,61.67
2023-02-17T09:33:48.368Z,61.45
2023-02-17T09:36:18.565Z,61.40
2023-02-17T09:38:45.207Z,61.22
2023-02-17T09:41:27.013Z,61.55
2023-02-17T09:43:55.176Z,61.21
2023-02-17T09:47:00.511Z,61.43
2023-02-17T09:49:35.062Z,61.70
2023-02-17T09:52:15.578Z,61.40
2023-02-17T09:55:04.377Z,61.34
2023-02-17T09:57:37.740Z,61.19
2023-02-17T10:00:12.642Z,61.27
2023-02-17T10:03:02.059Z,61.16
2023-02-17T10:05:36.474Z,61.03
2023-02-17T10:08:09.474Z,61.07
2023-02-17T10:10:46.876Z,61.08
2023-02-17T10:13:18.027Z,60.63
2023-02-17T10:15:49.295Z,60.62
2023-02-17T10:19:05.634Z,60.88
2023-02-17T10:21:39.352Z,60.52
2023-02-17T10:24:06.120Z,60.55
2023-02-17T10:26:57.595Z,60.50
2023-02-17T10:29:43.093Z,60.61
2023-02-17T10:32:24.991Z,60.38
2023-02-17T10:35:22.848Z,60.11
2023-02-17T10:37:55.370Z,60.29
2023-02-17T10:40:25.418Z,60.27
2023-02-17T10:42:57.687Z,59.93
2023-02-17T10:46:12.144Z,60.07
2023-02-17T10:48:47.085Z,60.04
2023-02-17T10:51:16.783Z,59.79
2023-02-17T10:53:49.284Z,59.59
2023-02-17T10:56:28.897Z,59.51
2023-02-17T10:59:03.019Z,59.09
2023-02-17T11:01:29.855Z,59.08
2023-02-17T11:04:06.300Z,58.94
2023-02-17T11:06:37.983Z,58.83
2023-02-17T11:09:09.237Z,59.12
2023-02-17T11:11:36.890Z,58.86
2023-02-17T11:14:14.482Z,59.12
2023-02-17T11:16:54.729Z,58.94
2023-02-17T11:19:36.215Z,58.85
2023-02-17T11:22:06.228Z,59.09
2023-02-17T11:24:34.913Z,59.02
2023-02-17T11:27:10.559Z,58.78
2023-02-17T11:29:37.664Z,58.89
2023-02-17T11:32:08.994Z,58.49
2023-02-17T11:34:39.556Z,58.65
2023-02-17T11:37:12.102Z,58.79
2023-02-17T11:39:41.464Z,58.81
2023-02-17T11:42:28.381Z,58.72
2023-02-17T11:44:57.570Z,58.64
2023-02-17T11:47:43.968Z,58.94
2023-02-17T11:50:40.094Z,58.43
2023-02-17T11:53:28.637Z,58.42
2023-02-17T11:56:33.379Z,58.84
2023-02-17T11:59:14.896Z,58.40
2023-02-17T12:01:44.566Z,58.58
2023-02-17T12:04:29.744Z,58.57
2023-02-17T12:07:05.176Z,58.40
2023-02-17T12:09:48.404Z,58.38
2023-02-17T12:12:40.948Z,58.27
2023-02-17T12:15:32.583Z,58.21
2023-02-17T12:18:20.507Z,58.14
2023-02-17T12:21:05.569Z,58.26
2023-02-17T12:23:45.657Z,58.60
2023-02-17T12:26:37.755Z,58.04
2023-02-17T12:29:04.391Z,58.60
2023-02-17T12:31:55.538Z,58.68
2023-02-17T12:34:55.723Z,58.17
2023-02-17T12:37:28.915Z,58.02
2023-02-17T12:40:03.860Z,58.57
2023-02-17T12:42:35.706Z,58.37
2023-02-17T12:45:18.730Z,58.13
2023-02-17T12:47:54.694Z,58.47
2023-02-17T12:50:27.446Z,58.55
2023-02-17T12:52:57.579Z,58.11
2023-02-17T12:55:50.639Z,58.50
2023-02-17T12:58:28.443Z,58.25
2023-02-17T13:01:06.164Z,57.91
2023-02-17T13:03:35.641Z,58.27
2023-02-17T13:06:11.387Z,58.29
2023-02-17T13:08:44.480Z,58.07
2023-02-17T13:11:13.983Z,58.22
2023-02-17T13:13:40.717Z,57.81
2023-02-17T13:16:13.659Z,57.95
2023-02-17T13:18:43.435Z,57.85
2023-02-17T13:21:31.873Z,58.04
2023-02-17T13:24:07.610Z,58.20
2023-02-17T13:26:38.967Z,58.25
2023-02-17T13:29:24.130Z,58.15
2023-02-17T13:31:50.845Z,57.81
2023-02-17T13:34:46.179Z,58.10
2023-02-17T13:37:37.092Z,57.97
2023-02-17T13:40:25.427Z,58.29
2023-02-17T13:42:54.415Z,57.87
2023-02-17T13:45:28.505Z,58.08
2023-02-17T13:48:00.795Z,58.20
2023-02-17T13:50:36.245Z,57.76
2023-02-17T13:53:21.191Z,58.22
2023-02-17T13:55:48.033Z,57.94
2023-02-17T13:58:14.575Z,57.86
2023-02-17T14:00:43.893Z,57.95
2023-02-17T14:03:28.848Z,57.96
2023-02-17T14:05:57.951Z,57.80
2023-02-17T14:08:39.434Z,57.98
2023-02-17T14:11:14.872Z,57.98
2023-02-17T14:13:47.591Z,58.08
2023-02-17T14:16:34.962Z,58.05
2023-02-17T14:19:09.247Z,58.22
2023-02-17T14:21:38.286Z,58.15
2023-02-17T14:24:05.423Z,58.28
2023-02-17T14:26:39.737Z,58.15
2023-02-17T14:29:09.137Z,58.28
2023-02-17T14:31:39.940Z,57.92
2023-02-17T14:34:07.777Z,57.92
2023-02-17T14:36:37.302Z,58.23
2023-02-17T14:39:07.261Z,57.99
2023-02-17T14:41:34.608Z,58.12
2023-02-17T14:44:01.450Z,57.96
2023-02-17T14:46:28.176Z,58.20
2023-02-17T14:48:55.234Z,57.97
2023-02-17T14:51:25.767Z,58.53
2023-02-17T14:53:53.017Z,58.21
2023-02-17T14:56:27.740Z,58.15
2023-02-17T14:58:54.383Z,58.21
2023-02-17T15:01:23.030Z,58.16
2023-02-17T15:03:50.052Z,58.16
2023-02-17T15:06:28.809Z,58.16
2023-02-17T15:08:56.658Z,58.07
2023-02-17T15:11:37.362Z,58.14
2023-02-17T15:14:04.911Z,57.92
2023-02-17T15:16:31.799Z,57.88
2023-02-17T15:18:58.501Z,57.87
2023-02-17T15:21:33.940Z,57.84
2023-02-17T15:24:01.581Z,58.13
2023-02-17T15:26:30.598Z,57.75
2023-02-17T15:28:58.161Z,58.01
2023-02-17T15:31:29.964Z,57.84
2023-02-17T15:33:58.903Z,58.23
2023-02-17T15:36:26.465Z,58.26
2023-02-17T15:38:53.191Z,58.09
2023-02-17T15:41:24.236Z,58.22
2023-02-17T15:43:51.586Z,58.44
2023-02-17T15:46:20.396Z,58.32
2023-02-17T15:48:52.340Z,58.49
2023-02-17T15:51:19.993Z,58.21
2023-02-17T15:53:47.857Z,58.14
2023-02-17T15:56:22.169Z,58.33
2023-02-17T15:58:50.454Z,58.18
2023-02-17T16:01:29.208Z,58.10
2023-02-17T16:03:57.413Z,58.15
2023-02-17T16:06:25.329Z,58.09
2023-02-17T16:08:52.128Z,58.46
2023-02-17T16:11:21.348Z,58.36
2023-02-17T16:13:48.808Z,58.42
2023-02-17T16:16:19.283Z,58.21
2023-02-17T16:18:49.355Z,58.34
2023-02-17T16:21:16.600Z,58.47
2023-02-17T16:23:43.852Z,58.35
2023-02-17T16:26:17.558Z,58.37
2023-02-17T16:28:45.643Z,58.26
2023-02-17T16:31:12.394Z,58.34
2023-02-17T16:33:39.101Z,58.23
2023-02-17T16:36:13.828Z,58.46
2023-02-17T16:38:40.983Z,58.11
2023-02-17T16:41:07.922Z,58.57
2023-02-17T16:43:34.560Z,58.65
2023-02-17T16:46:04.821Z,58.52
2023-02-17T16:48:34.260Z,58.49
2023-02-17T16:51:01.534Z,58.33
2023-02-17T16:53:28.590Z,58.53
2023-02-17T16:55:56.245Z,58.29
2023-02-17T16:58:24.927Z,58.31
2023-02-17T17:00:53.929Z,58.46
2023-02-17T17:03:24.382Z,58.57
2023-02-17T17:05:52.712Z,58.54
2023-02-17T17:08:21.580Z,58.60
2023-02-17T17:10:49.554Z,58.50
2023-02-17T17:13:16.618Z,58.33
2023-02-17T17:15:45.258Z,58.50
2023-02-17T17:18:21.555Z,58.71
2023-02-17T17:20:48.817Z,58.77
2023-02-17T17:23:15.975Z,58.61
2023-02-17T17:25:46.846Z,58.32
2023-02-17T17:28:15.684Z,58.54
2023-02-17T17:30:42.531Z,58.48
2023-02-17T17:33:09.063Z,58.83
2023-02-17T17:35:36.525Z,58.80
2023-02-17T17:38:03.155Z,58.66
2023-02-17T17:40:32.963Z,58.62
2023-02-17T17:42:59.905Z,58.66
2023-02-17T17:45:26.655Z,59.05
2023-02-17T17:47:53.383Z,58.86
2023-02-17T17:50:23.210Z,58.86
2023-02-17T17:52:49.937Z,58.74
2023-02-17T17:55:16.781Z,58.67
2023-02-17T17:57:43.423Z,58.63
2023-02-17T18:00:14.057Z,58.96
2023-02-17T18:02:43.756Z,58.99
2023-02-17T18:05:11.014Z,58.92
2023-02-17T18:07:38.552Z,58.98
2023-02-17T18:10:07.260Z,58.89
2023-02-17T18:12:34.192Z,58.95
2023-02-17T18:15:02.985Z,58.71
2023-02-17T18:17:33.711Z,58.71
2023-02-17T18:20:00.366Z,58.66
2023-02-17T18:22:27.091Z,58.76
2023-02-17T18:24:53.902Z,59.05
2023-02-17T18:27:20.589Z,58.97
2023-02-17T18:29:47.200Z,58.91
2023-02-17T18:32:13.890Z,59.21
2023-02-17T18:34:40.396Z,58.90
2023-02-17T18:37:08.169Z,59.05
2023-02-17T18:39:34.819Z,58.79
2023-02-17T18:42:01.404Z,58.82
2023-02-17T18:44:28.039Z,59.30
2023-02-17T18:46:54.683Z,59.23
2023-02-17T18:49:21.416Z,59.09
2023-02-17T18:51:48.048Z,59.41
2023-02-17T18:54:15.299Z,58.93
2023-02-17T18:56:41.953Z,59.11
2023-02-17T18:59:08.582Z,59.01
2023-02-17T19:01:39.473Z,59.19
2023-02-17T19:04:06.868Z,59.27
2023-02-17T19:06:34.924Z,59.06
2023-02-17T19:09:04.139Z,59.27
2023-02-17T19:11:32.195Z,59.43
2023-02-17T19:14:00.778Z,59.61
2023-02-17T19:16:29.414Z,59.45
2023-02-17T19:18:56.720Z,59.47
2023-02-17T19:21:23.558Z,59.30
2023-02-17T19:23:51.322Z,59.65
2023-02-17T19:26:18.898Z,59.23
2023-02-17T19:28:46.228Z,59.45
2023-02-17T19:31:15.916Z,59.32
2023-02-17T19:33:44.315Z,59.19
2023-02-17T19:36:14.022Z,59.27
2023-02-17T19:38:40.661Z,59.32
2023-02-17T19:41:09.557Z,59.25
2023-02-17T19:43:36.293Z,59.26
2023-02-17T19:46:03.980Z,59.33
2023-02-17T19:48:30.592Z,59.37
2023-02-17T19:51:03.288Z,59.71
2023-02-17T19:53:31.650Z,59.43
2023-02-17T19:56:11.338Z,59.74
2023-02-17T19:58:38.957Z,59.41
2023-02-17T20:01:20.261Z,59.26
2023-02-17T20:03:47.380Z,59.32
2023-02-17T20:06:17.396Z,59.55
2023-02-17T20:08:45.466Z,59.33
2023-02-17T20:11:12.414Z,59.81
2023-02-17T20:13:45.818Z,59.59
2023-02-17T20:16:14.814Z,59.58
2023-02-17T20:18:44.751Z,59.50
2023-02-17T20:21:14.417Z,59.52
2023-02-17T20:23:41.163Z,59.56
2023-02-17T20:26:10.442Z,59.74
2023-02-17T20:28:37.597Z,59.87
2023-02-17T20:31:05.624Z,59.79
2023-02-17T20:33:32.597Z,60.08
2023-02-17T20:35:59.251Z,59.90
2023-02-17T20:38:25.785Z,59.98
2023-02-17T20:40:52.522Z,60.12
2023-02-17T20:43:20.291Z,60.50
2023-02-17T20:45:49.278Z,60.45
2023-02-17T20:48:16.225Z,60.63
2023-02-17T20:50:43.587Z,60.12
2023-02-17T20:53:10.213Z,60.21
2023-02-17T20:55:37.064Z,60.68
2023-02-17T20:58:04.101Z,60.41
2023-02-17T21:00:30.994Z,60.68
2023-02-17T21:02:57.838Z,60.54
2023-02-17T21:05:26.297Z,60.67
2023-02-17T21:07:53.311Z,60.29
2023-02-17T21:10:27.428Z,60.36
2023-02-17T21:12:54.906Z,60.38
2023-02-17T21:15:22.336Z,60.30
2023-02-17T21:17:49.578Z,60.06
2023-02-17T21:20:19.402Z,60.31
2023-02-17T21:22:46.447Z,60.13
2023-02-17T21:25:13.386Z,59.85
2023-02-17T21:27:40.022Z,60.27
2023-02-17T21:30:08.545Z,60.15
2023-02-17T21:32:35.307Z,60.12
2023-02-17T21:35:02.091Z,59.76
2023-02-17T21:37:28.922Z,59.75
2023-02-17T21:39:55.594Z,59.68
2023-02-17T21:42:44.639Z,59.84
2023-02-17T21:45:12.483Z,59.83
2023-02-17T21:47:39.138Z,59.72
2023-02-17T21:50:06.488Z,59.51
2023-02-17T21:52:33.047Z,59.58
2023-02-17T21:55:01.156Z,59.28
2023-02-17T21:57:27.815Z,59.77
2023-02-17T21:59:54.352Z,59.38
2023-02-17T22:02:20.999Z,59.45
2023-02-17T22:04:47.620Z,59.54
2023-02-17T22:07:14.257Z,59.86
2023-02-17T22:09:40.790Z,59.36
2023-02-17T22:12:07.533Z,59.43
2023-02-17T22:14:34.167Z,59.66
2023-02-17T22:17:01.116Z,59.69
2023-02-17T22:19:31.285Z,59.94
2023-02-17T22:21:58.193Z,59.46
2023-02-17T22:24:27.432Z,59.95
2023-02-17T22:26:54.514Z,59.57
2023-02-17T22:29:21.054Z,59.73
2023-02-17T22:31:50.459Z,59.57
2023-02-17T22:34:17.300Z,59.61
2023-02-17T22:36:44.054Z,59.66
2023-02-17T22:39:10.669Z,59.83
2023-02-17T22:41:38.779Z,59.77
2023-02-17T22:44:05.546Z,59.38
2023-02-17T22:46:32.280Z,60.05
2023-02-17T22:48:59.480Z,59.65
2023-02-17T22:51:29.485Z,60.06
2023-02-17T22:53:58.406Z,59.63
2023-02-17T22:56:25.221Z,59.89
2023-02-17T22:58:55.952Z,59.69
2023-02-17T23:01:23.514Z,60.10
2023-02-17T23:03:54.450Z,60.22
2023-02-17T23:06:29.632Z,59.75
2023-02-17T23:08:57.038Z,59.67
2023-02-17T23:11:45.787Z,59.94
2023-02-17T23:14:14.074Z,59.93
2023-02-17T23:16:41.203Z,59.89
2023-02-17T23:19:09.719Z,60.30
2023-02-17T23:21:37.154Z,60.31
2023-02-17T23:24:04.196Z,60.35
2023-02-17T23:26:30.728Z,59.97
2023-02-17T23:28:57.344Z,60.22
2023-02-17T23:31:23.999Z,60.27
2023-02-17T23:33:50.742Z,59.94
2023-02-17T23:36:17.496Z,59.94
2023-02-17T23:38:44.014Z,60.04
2023-02-17T23:41:10.961Z,60.45
2023-02-17T23:43:37.598Z,60.14
2023-02-17T23:46:04.462Z,60.35
2023-02-17T23:48:31.076Z,60.11
2023-02-17T23:51:03.855Z,60.30
2023-02-17T23:53:31.618Z,60.55
2023-02-17T23:56:11.157Z,60.28
2023-02-17T23:58:37.799Z,60.11
